Time;durP1;ratioP1;P1;durP2;ratioP2;P2;SDS_P1;SDS_P2;PMS_P1;PMS_P2;Temp;Humidity;BMP_temperature;BMP_pressure;BME280_temperature;BME280_humidity;BME280_pressure;Samples;Min_cycle;Max_cycle;Signal;HPM_P1;HPM_P2
2023/05/06 00:00:05;;;;;;;19.73;13.98;;;;;;;10.56;100.00;101521.53;5160366;27;20519;-70
2023/05/06 00:02:37;;;;;;;21.60;14.38;;;;;;;10.55;100.00;101518.03;5159713;27;20038;-70
2023/05/06 00:05:05;;;;;;;21.48;14.88;;;;;;;10.57;100.00;101512.75;5159790;27;20032;-71
2023/05/06 00:07:32;;;;;;;22.45;15.10;;;;;;;10.61;100.00;101519.66;5143613;27;20062;-71
2023/05/06 00:09:59;;;;;;;19.27;13.98;;;;;;;10.63;100.00;101511.75;5159479;27;20042;-71
2023/05/06 00:12:26;;;;;;;20.58;14.63;;;;;;;10.67;100.00;101513.41;5146221;27;20036;-71
2023/05/06 00:14:53;;;;;;;18.75;13.45;;;;;;;10.71;100.00;101510.69;5130908;27;20070;-71
2023/05/06 00:17:20;;;;;;;21.48;14.73;;;;;;;10.74;100.00;101507.09;5129035;27;20046;-72
2023/05/06 00:19:48;;;;;;;19.67;15.10;;;;;;;10.77;100.00;101506.19;5130088;27;20047;-71
2023/05/06 00:22:15;;;;;;;24.25;15.68;;;;;;;10.75;100.00;101503.56;5130150;27;20032;-71
2023/05/06 00:24:42;;;;;;;22.25;15.23;;;;;;;10.77;100.00;101503.56;5145405;27;20036;-71
2023/05/06 00:27:09;;;;;;;23.95;16.08;;;;;;;10.76;100.00;101497.41;5129486;27;20036;-71
2023/05/06 00:29:36;;;;;;;26.30;17.55;;;;;;;10.76;100.00;101494.75;5129679;27;20139;-71
2023/05/06 00:32:04;;;;;;;25.95;17.98;;;;;;;10.75;100.00;101490.38;5128312;27;20040;-71
2023/05/06 00:34:31;;;;;;;25.13;17.15;;;;;;;10.76;100.00;101501.81;5128440;27;20043;-71
2023/05/06 00:36:58;;;;;;;23.73;17.48;;;;;;;10.71;100.00;101502.78;5129975;27;20050;-71
2023/05/06 00:39:25;;;;;;;21.10;16.33;;;;;;;10.67;100.00;101493.19;5129193;27;21018;-71
2023/05/06 00:41:52;;;;;;;23.60;16.88;;;;;;;10.64;100.00;101484.47;5129014;27;20046;-71
2023/05/06 00:44:19;;;;;;;24.80;17.05;;;;;;;10.60;100.00;101477.53;5128418;27;20036;-72
2023/05/06 00:46:47;;;;;;;23.73;17.45;;;;;;;10.57;100.00;101484.59;5130083;27;20079;-71
2023/05/06 00:49:14;;;;;;;21.90;16.13;;;;;;;10.49;100.00;101475.09;5130311;27;20039;-71
2023/05/06 00:51:41;;;;;;;19.85;14.13;;;;;;;10.43;100.00;101472.59;5129212;27;20044;-71
2023/05/06 00:54:08;;;;;;;22.45;15.10;;;;;;;10.36;100.00;101477.97;5128881;27;20134;-71
2023/05/06 00:56:36;;;;;;;19.40;14.07;;;;;;;10.28;100.00;101471.94;5128177;27;20118;-71
2023/05/06 00:59:03;;;;;;;19.83;14.25;;;;;;;10.22;100.00;101472.94;5145003;27;20059;-71
2023/05/06 01:01:30;;;;;;;24.40;14.85;;;;;;;10.17;100.00;101471.28;5144892;27;20533;-71
2023/05/06 01:03:59;;;;;;;20.70;15.77;;;;;;;10.09;100.00;101467.00;5163012;27;20036;-71
2023/05/06 01:06:39;;;;;;;19.55;15.13;;;;;;;10.05;100.00;101469.72;5129755;27;20637;-71
2023/05/06 01:09:26;;;;;;;22.45;16.85;;;;;;;10.01;100.00;101471.56;5128427;27;20103;-71
2023/05/06 01:12:25;;;;;;;23.58;17.35;;;;;;;9.99;100.00;101469.84;5144295;27;20479;-71
2023/05/06 01:15:12;;;;;;;27.02;17.73;;;;;;;9.98;100.00;101468.13;5129346;27;20048;-71
2023/05/06 01:17:45;;;;;;;24.77;18.20;;;;;;;9.97;100.00;101469.00;5129718;27;20042;-71
2023/05/06 01:20:14;;;;;;;26.27;19.05;;;;;;;9.94;100.00;101473.44;5144254;27;20039;-71
2023/05/06 01:22:41;;;;;;;25.10;18.48;;;;;;;9.93;100.00;101476.09;5143657;27;20047;-71
2023/05/06 01:25:21;;;;;;;30.75;18.90;;;;;;;9.94;100.00;101477.84;5129079;27;20916;-71
2023/05/06 01:27:49;;;;;;;24.90;17.25;;;;;;;9.91;100.00;101469.97;5127275;27;20545;-71
2023/05/06 01:30:21;;;;;;;24.25;17.17;;;;;;;9.88;100.00;101475.28;5129667;27;20067;-71
2023/05/06 01:33:08;;;;;;;23.70;17.13;;;;;;;9.84;100.00;101471.84;5129415;27;20065;-71
2023/05/06 01:36:14;;;;;;;23.73;16.77;;;;;;;9.81;100.00;101468.41;5128602;27;20043;-71
2023/05/06 01:38:56;;;;;;;24.70;15.02;;;;;;;9.73;100.00;101474.69;5129365;27;20126;-71
2023/05/06 01:41:26;;;;;;;19.92;14.60;;;;;;;9.70;100.00;101481.75;5144121;27;20036;-71
2023/05/06 01:43:55;;;;;;;20.83;15.95;;;;;;;9.59;100.00;101480.19;5128226;27;20035;-71
2023/05/06 01:46:24;;;;;;;23.05;16.15;;;;;;;9.52;100.00;101478.50;5127579;27;20483;-71
2023/05/06 01:48:57;;;;;;;26.27;15.57;;;;;;;9.45;100.00;101477.75;5143701;27;20619;-71
2023/05/06 01:51:24;;;;;;;63.97;19.05;;;;;;;9.42;100.00;101476.91;5129413;27;20044;-71
2023/05/06 01:53:51;;;;;;;33.80;18.88;;;;;;;9.37;100.00;101476.97;5128796;27;20036;-71
2023/05/06 01:56:18;;;;;;;31.83;17.42;;;;;;;9.34;100.00;101482.31;5128052;27;20071;-71
2023/05/06 01:58:45;;;;;;;24.77;16.55;;;;;;;9.29;100.00;101476.25;5129023;27;20050;-71
2023/05/06 02:01:13;;;;;;;26.05;16.75;;;;;;;9.26;100.00;101481.56;5128145;27;20049;-71
2023/05/06 02:03:40;;;;;;;24.20;16.60;;;;;;;9.21;100.00;101480.75;5127260;27;20081;-71
2023/05/06 02:06:07;;;;;;;22.40;16.35;;;;;;;9.17;100.00;101486.03;5161775;27;20055;-71
2023/05/06 02:08:39;;;;;;;23.25;17.23;;;;;;;9.16;100.00;101492.19;5144470;27;20093;-70
2023/05/06 02:11:09;;;;;;;24.38;16.88;;;;;;;9.14;100.00;101488.75;5126412;27;20044;-71
2023/05/06 02:13:36;;;;;;;27.15;18.05;;;;;;;9.16;100.00;101480.81;5127119;27;20119;-71
2023/05/06 02:16:07;;;;;;;25.63;18.52;;;;;;;9.14;100.00;101475.59;5127063;27;20826;-71
2023/05/06 02:18:34;;;;;;;27.35;19.50;;;;;;;9.13;100.00;101480.84;5143973;27;20044;-72
2023/05/06 02:21:02;;;;;;;24.38;18.10;;;;;;;9.14;100.00;101487.84;5122534;27;20533;-71
2023/05/06 02:23:29;;;;;;;27.60;19.02;;;;;;;9.12;100.00;101484.38;5106815;28;20131;-71
2023/05/06 02:25:57;;;;;;;26.98;18.55;;;;;;;9.12;100.00;101490.50;5107527;27;20032;-71
2023/05/06 02:28:24;;;;;;;24.55;17.98;;;;;;;9.11;100.00;101493.16;5107388;28;20094;-71
2023/05/06 02:30:56;;;;;;;23.35;17.13;;;;;;;9.07;100.00;101488.84;5107924;27;20453;-71
2023/05/06 02:33:23;;;;;;;23.67;17.45;;;;;;;9.04;100.00;101480.97;5107202;27;20042;-71
2023/05/06 02:35:50;;;;;;;23.55;16.92;;;;;;;9.00;100.00;101486.25;5106120;28;20504;-71
2023/05/06 02:38:18;;;;;;;23.92;17.00;;;;;;;8.99;100.00;101488.94;5089030;28;20047;-71
2023/05/06 02:40:45;;;;;;;25.15;18.73;;;;;;;8.95;100.00;101490.72;5106392;28;20044;-71
2023/05/06 02:43:12;;;;;;;23.10;16.48;;;;;;;8.93;100.00;101482.00;5107084;27;20040;-70
2023/05/06 02:45:39;;;;;;;23.80;17.67;;;;;;;8.92;100.00;101475.00;5106547;27;20036;-71
2023/05/06 02:48:07;;;;;;;24.65;17.10;;;;;;;8.92;100.00;101477.63;5107989;27;20063;-71
2023/05/06 02:50:35;;;;;;;25.20;18.00;;;;;;;8.90;100.00;101479.41;5119472;27;20040;-71
2023/05/06 02:53:02;;;;;;;24.67;18.65;;;;;;;8.89;100.00;101479.41;5127917;27;20043;-71
2023/05/06 02:55:30;;;;;;;24.70;18.25;;;;;;;8.88;100.00;101469.78;5127193;27;20127;-71
2023/05/06 02:57:57;;;;;;;23.48;17.00;;;;;;;8.86;100.00;101477.72;5125500;27;20142;-70
2023/05/06 03:00:24;;;;;;;26.50;17.95;;;;;;;8.83;100.00;101483.00;5127879;27;20052;-71
2023/05/06 03:02:51;;;;;;;26.08;18.00;;;;;;;8.82;100.00;101474.25;5144599;27;20044;-71
2023/05/06 03:05:18;;;;;;;24.60;17.67;;;;;;;8.82;100.00;101487.41;5127473;27;20088;-71
2023/05/06 03:07:45;;;;;;;24.83;17.77;;;;;;;8.82;100.00;101476.88;5160724;27;20048;-71
2023/05/06 03:10:13;;;;;;;23.80;17.88;;;;;;;8.81;100.00;101484.78;5143831;27;20109;-71
2023/05/06 03:12:41;;;;;;;25.80;17.73;;;;;;;8.81;100.00;101472.50;5142727;27;20530;-70
2023/05/06 03:15:09;;;;;;;23.60;17.30;;;;;;;8.78;100.00;101477.81;5160975;27;20032;-71
2023/05/06 03:17:37;;;;;;;22.80;16.20;;;;;;;8.77;100.00;101483.94;5143167;27;20067;-72
2023/05/06 03:20:07;;;;;;;22.27;16.58;;;;;;;8.74;100.00;101475.22;5127412;27;20047;-71
2023/05/06 03:22:37;;;;;;;22.73;17.17;;;;;;;8.71;100.00;101468.25;5126296;27;20047;-70
2023/05/06 03:25:05;;;;;;;22.35;16.63;;;;;;;8.67;100.00;101464.81;5126181;27;20032;-72
2023/05/06 03:27:33;;;;;;;22.23;17.08;;;;;;;8.65;100.00;101468.31;5125427;27;20043;-71
2023/05/06 03:30:08;;;;;;;23.40;17.20;;;;;;;8.61;100.00;101479.78;5126517;27;20043;-71
2023/05/06 03:32:36;;;;;;;21.08;16.45;;;;;;;8.58;100.00;101475.44;5125486;27;20035;-71
2023/05/06 03:35:07;;;;;;;21.77;17.52;;;;;;;8.54;100.00;101478.97;5143299;27;20496;-71
2023/05/06 03:37:35;;;;;;;22.50;17.20;;;;;;;8.52;100.00;101480.75;5143672;27;20039;-71
2023/05/06 03:40:03;;;;;;;24.40;17.95;;;;;;;8.50;100.00;101479.88;5125786;27;20051;-70
2023/05/06 03:42:31;;;;;;;24.08;17.98;;;;;;;8.49;100.00;101472.91;5124931;27;20044;-71
2023/05/06 03:44:59;;;;;;;24.00;16.75;;;;;;;8.47;100.00;101475.53;5125596;27;20032;-70
2023/05/06 03:47:29;;;;;;;23.75;17.88;;;;;;;8.45;100.00;101479.03;5146208;27;20044;-71
2023/05/06 03:49:56;;;;;;;23.13;17.30;;;;;;;8.40;100.00;101464.19;5130542;27;20032;-71
2023/05/06 03:52:24;;;;;;;21.60;17.65;;;;;;;8.40;100.00;101471.22;5129938;27;20131;-71
2023/05/06 03:54:52;;;;;;;24.20;17.73;;;;;;;8.38;100.00;101468.63;5128904;27;20070;-71
2023/05/06 03:57:19;;;;;;;22.85;17.75;;;;;;;8.39;100.00;101466.84;5130014;27;20042;-71
2023/05/06 03:59:46;;;;;;;24.55;19.10;;;;;;;8.41;100.00;101472.97;5130257;27;20051;-71
2023/05/06 04:02:15;;;;;;;23.23;18.13;;;;;;;8.45;100.00;101485.16;5128818;27;20063;-71
2023/05/06 04:04:43;;;;;;;22.58;17.95;;;;;;;8.45;100.00;101482.53;5128975;27;20559;-71
2023/05/06 04:07:11;;;;;;;26.20;19.08;;;;;;;8.49;100.00;101486.91;5128920;27;20042;-71
2023/05/06 04:09:38;;;;;;;24.67;18.75;;;;;;;8.52;100.00;101480.75;5129291;27;20075;-71
2023/05/06 04:12:07;;;;;;;25.23;18.95;;;;;;;8.53;100.00;101474.59;5128457;27;20554;-71
2023/05/06 04:14:35;;;;;;;27.38;18.98;;;;;;;8.60;100.00;101471.00;5146139;27;20086;-71
2023/05/06 04:17:04;;;;;;;24.95;18.88;;;;;;;8.67;100.00;101477.06;5128482;27;20047;-71
2023/05/06 04:19:32;;;;;;;26.67;19.13;;;;;;;8.72;100.00;101471.75;5142222;27;20043;-71
2023/05/06 04:21:59;;;;;;;24.52;17.80;;;;;;;8.76;100.00;101468.19;5122328;27;20047;-71
2023/05/06 04:24:30;;;;;;;23.83;17.88;;;;;;;8.85;100.00;101482.09;5146486;27;21473;-71
2023/05/06 04:26:58;;;;;;;23.30;17.42;;;;;;;8.92;100.00;101482.03;5145513;27;20048;-71
2023/05/06 04:29:25;;;;;;;22.85;17.10;;;;;;;8.94;100.00;101482.88;5128513;27;20085;-71
2023/05/06 04:31:59;;;;;;;20.52;16.42;;;;;;;8.96;100.00;101488.97;5130581;27;20098;-71
2023/05/06 04:34:30;;;;;;;21.52;17.30;;;;;;;8.98;100.00;101490.72;5145406;27;20109;-71
2023/05/06 04:37:00;;;;;;;22.45;17.27;;;;;;;8.99;100.00;101489.81;5111945;27;20042;-71
2023/05/06 04:39:35;;;;;;;20.40;15.70;;;;;;;9.05;100.00;101494.13;5112420;27;20059;-71
2023/05/06 04:42:03;;;;;;;19.70;15.68;;;;;;;9.12;100.00;101498.41;5145559;27;20354;-71
2023/05/06 04:44:37;;;;;;;21.55;16.10;;;;;;;9.26;100.00;101506.09;5127275;27;20412;-71
2023/05/06 04:47:08;;;;;;;17.80;14.88;;;;;;;9.41;100.00;101501.53;5128768;27;20584;-71
2023/05/06 04:49:37;;;;;;;18.10;14.63;;;;;;;9.62;99.86;101506.44;5142512;27;20047;-71
2023/05/06 04:52:05;;;;;;;17.23;14.20;;;;;;;9.91;99.31;101514.75;5107509;28;20042;-71
2023/05/06 04:54:32;;;;;;;18.42;14.38;;;;;;;10.07;98.61;101516.22;5125019;27;20121;-71
2023/05/06 04:56:59;;;;;;;17.17;13.75;;;;;;;10.39;97.64;101516.59;5141460;27;20060;-71
2023/05/06 04:59:28;;;;;;;17.02;13.10;;;;;;;10.67;96.24;101519.56;5141538;27;20050;-71
2023/05/06 05:01:55;;;;;;;15.38;13.02;;;;;;;10.91;95.80;101519.94;5109118;27;20040;-71
2023/05/06 05:04:22;;;;;;;15.73;13.18;;;;;;;11.36;94.67;101526.03;5108654;27;20144;-71
2023/05/06 05:06:49;;;;;;;19.15;12.85;;;;;;;11.56;93.79;101518.53;5108457;27;20487;-71
2023/05/06 05:09:16;;;;;;;15.13;12.48;;;;;;;11.75;93.04;101520.72;5142043;27;20031;-71
2023/05/06 05:11:45;;;;;;;14.98;11.63;;;;;;;11.98;92.09;101522.81;5123425;27;20196;-71
2023/05/06 05:14:12;;;;;;;13.88;12.32;;;;;;;12.48;90.78;101518.88;5141702;27;20035;-71
2023/05/06 05:16:39;;;;;;;14.93;11.68;;;;;;;13.12;89.05;101517.94;5109157;27;20096;-71
2023/05/06 05:19:07;;;;;;;13.07;10.80;;;;;;;13.69;86.85;101517.97;5132624;27;20132;-71
2023/05/06 05:21:35;;;;;;;12.07;10.10;;;;;;;14.03;85.88;101523.03;5128376;27;20051;-71
2023/05/06 05:24:04;;;;;;;11.75;9.10;;;;;;;15.31;81.85;101521.97;5144356;27;20035;-71
2023/05/06 05:26:31;;;;;;;12.63;10.35;;;;;;;16.46;78.25;101520.78;5145082;27;20070;-71
2023/05/06 05:28:59;;;;;;;10.00;9.00;;;;;;;16.54;77.32;101523.06;5126623;27;20062;-71
2023/05/06 05:31:28;;;;;;;10.77;8.10;;;;;;;16.25;77.37;101528.78;5128120;27;20039;-71
2023/05/06 05:33:56;;;;;;;10.52;9.38;;;;;;;15.99;78.08;101530.72;5144830;27;20039;-71
2023/05/06 05:36:23;;;;;;;14.65;9.60;;;;;;;16.25;77.76;101530.56;5127861;27;20175;-71
2023/05/06 05:38:53;;;;;;;12.32;9.25;;;;;;;18.09;73.75;101527.34;5144551;27;20127;-71
2023/05/06 05:41:25;;;;;;;10.20;8.05;;;;;;;19.21;69.84;101527.66;5144995;27;20040;-72
2023/05/06 05:43:53;;;;;;;9.20;8.15;;;;;;;20.16;66.95;101530.25;5143350;27;20071;-71
2023/05/06 05:46:21;;;;;;;11.13;8.27;;;;;;;20.94;63.50;101530.00;5144792;27;20069;-71
2023/05/06 05:48:49;;;;;;;8.60;7.70;;;;;;;21.12;61.71;101528.88;5110674;27;20028;-71
2023/05/06 05:51:19;;;;;;;13.82;8.18;;;;;;;19.98;63.87;101534.91;5126994;27;20501;-71
2023/05/06 05:53:46;;;;;;;8.98;8.00;;;;;;;18.84;67.01;101532.31;5144542;27;20119;-71
2023/05/06 05:56:14;;;;;;;10.32;8.32;;;;;;;17.84;68.83;101523.22;5127406;27;20550;-71
2023/05/06 05:58:41;;;;;;;11.52;8.40;;;;;;;17.10;72.06;101525.91;5105539;28;20123;-71
2023/05/06 06:01:08;;;;;;;11.25;8.93;;;;;;;16.54;74.30;101531.06;5105877;28;20531;-71
2023/05/06 06:03:35;;;;;;;9.57;7.85;;;;;;;16.13;76.33;101535.47;5106624;28;20140;-71
2023/05/06 06:06:04;;;;;;;12.85;8.77;;;;;;;15.82;77.85;101534.06;5107051;28;20044;-71
2023/05/06 06:08:33;;;;;;;10.77;8.98;;;;;;;15.55;78.84;101544.03;5105379;27;20036;-71
2023/05/06 06:11:02;;;;;;;13.32;9.45;;;;;;;15.36;79.80;101544.75;5105766;27;20068;-71
2023/05/06 06:13:35;;;;;;;;;;;;;;;15.16;80.53;101539.38;5105991;28;20048;-71
2023/05/06 06:16:03;;;;;;;11.45;9.68;;;;;;;15.05;81.33;101542.44;5123813;27;19931;-71
2023/05/06 06:18:32;;;;;;;13.07;9.57;;;;;;;14.93;81.16;101540.22;5109503;27;20043;-71
2023/05/06 06:20:59;;;;;;;11.98;9.27;;;;;;;14.84;81.98;101533.50;5140559;27;20126;-71
2023/05/06 06:23:26;;;;;;;17.45;10.27;;;;;;;14.77;82.10;101540.81;5108019;27;20059;-71
2023/05/06 06:25:53;;;;;;;15.40;9.63;;;;;;;14.72;82.91;101548.06;5123017;27;20567;-71
2023/05/06 06:28:20;;;;;;;13.73;9.68;;;;;;;14.64;83.22;101537.72;5140242;27;20115;-71
2023/05/06 06:30:47;;;;;;;12.77;10.00;;;;;;;14.65;83.56;101541.22;5140197;27;20040;-71
2023/05/06 06:33:15;;;;;;;14.02;10.93;;;;;;;14.71;83.82;101546.31;5123250;27;20044;-71
2023/05/06 06:35:42;;;;;;;13.35;10.55;;;;;;;14.75;83.89;101540.84;5107730;27;20942;-71
2023/05/06 06:38:09;;;;;;;13.10;10.60;;;;;;;14.81;83.50;101547.72;5107632;27;20036;-71
2023/05/06 06:40:35;;;;;;;16.45;11.07;;;;;;;14.93;83.16;101541.13;5140701;27;20654;-71
2023/05/06 06:43:02;;;;;;;14.73;10.77;;;;;;;15.10;83.39;101542.25;5106776;27;20043;-71
2023/05/06 06:45:47;;;;;;;13.07;10.10;;;;;;;15.31;83.44;101546.75;5140455;27;20446;-71
2023/05/06 06:48:15;;;;;;;12.32;10.45;;;;;;;15.50;82.15;101554.88;5110195;27;20051;-71
2023/05/06 06:50:42;;;;;;;13.93;10.18;;;;;;;15.61;81.71;101554.41;5126010;27;20044;-71
2023/05/06 06:53:10;;;;;;;13.18;9.77;;;;;;;15.73;82.50;101546.88;5126841;27;20035;-71
2023/05/06 06:55:37;;;;;;;14.25;10.60;;;;;;;15.87;82.35;101551.66;5126491;27;20039;-71
2023/05/06 06:58:04;;;;;;;12.98;10.20;;;;;;;15.96;81.26;101559.25;5142880;27;20040;-71
2023/05/06 07:00:31;;;;;;;12.88;10.10;;;;;;;16.05;81.46;101558.88;5142850;27;20044;-71
2023/05/06 07:02:58;;;;;;;16.02;9.85;;;;;;;16.07;80.67;101553.50;5128045;27;20062;-71
2023/05/06 07:05:25;;;;;;;12.60;9.63;;;;;;;16.09;80.68;101548.97;5126097;27;20167;-71
2023/05/06 07:07:54;;;;;;;13.05;9.00;;;;;;;16.11;80.32;101544.44;5127593;27;20511;-71
2023/05/06 07:10:21;;;;;;;13.18;9.38;;;;;;;16.17;80.63;101551.31;5127836;27;20561;-71
2023/05/06 07:12:48;;;;;;;11.45;9.32;;;;;;;16.22;80.18;101546.66;5127395;27;20097;-71
2023/05/06 07:15:15;;;;;;;13.13;10.50;;;;;;;16.31;80.25;101551.59;5126629;27;20599;-71
2023/05/06 07:17:42;;;;;;;11.73;9.40;;;;;;;16.32;79.29;101557.75;5109407;27;20046;-71
2023/05/06 07:20:10;;;;;;;18.15;9.10;;;;;;;16.37;79.94;101555.78;5126686;27;20067;-71
2023/05/06 07:22:37;;;;;;;15.05;9.60;;;;;;;16.50;79.82;101554.28;5147093;27;20039;-71
2023/05/06 07:25:05;;;;;;;11.13;8.57;;;;;;;16.69;79.65;101558.78;5131143;27;20036;-71
2023/05/06 07:27:32;;;;;;;12.68;8.75;;;;;;;16.87;78.66;101552.66;5130903;27;20499;-71
2023/05/06 07:29:59;;;;;;;11.13;9.20;;;;;;;17.09;78.32;101565.03;5128746;27;20519;-71
2023/05/06 07:32:26;;;;;;;12.68;8.95;;;;;;;17.32;78.08;101563.94;5164591;27;20096;-71
2023/05/06 07:34:53;;;;;;;11.13;7.75;;;;;;;17.55;77.60;101556.63;5131042;27;20107;-71
2023/05/06 07:37:20;;;;;;;12.30;8.27;;;;;;;17.72;77.17;101555.81;5130732;27;20499;-71
2023/05/06 07:39:47;;;;;;;10.70;8.05;;;;;;;17.83;75.54;101560.63;5146579;27;20040;-71
2023/05/06 07:42:14;;;;;;;9.20;7.47;;;;;;;17.81;75.52;101566.03;5130978;27;20119;-71
2023/05/06 07:44:42;;;;;;;11.70;7.93;;;;;;;17.80;74.55;101579.44;5129965;27;20163;-71
2023/05/06 07:47:08;;;;;;;10.27;7.50;;;;;;;17.74;74.47;101577.09;5130730;27;20592;-71
2023/05/06 07:49:36;;;;;;;13.27;8.07;;;;;;;17.70;74.56;101584.38;5130728;27;20053;-71
2023/05/06 07:52:03;;;;;;;8.35;7.18;;;;;;;17.67;74.48;101576.50;5130695;27;20381;-71
2023/05/06 07:54:30;;;;;;;9.00;7.68;;;;;;;17.62;75.51;101574.06;5146741;27;20068;-71
2023/05/06 07:56:57;;;;;;;13.77;8.07;;;;;;;17.66;75.72;101580.13;5146429;27;20535;-72
2023/05/06 07:59:24;;;;;;;11.82;8.40;;;;;;;17.65;75.09;101578.38;5129663;27;20039;-71
2023/05/06 08:01:51;;;;;;;12.50;8.00;;;;;;;17.69;75.90;101574.66;5129744;27;20156;-71
2023/05/06 08:04:18;;;;;;;12.98;7.65;;;;;;;17.72;74.74;101571.81;5131103;27;20044;-71
2023/05/06 08:06:45;;;;;;;12.38;8.00;;;;;;;17.74;75.37;101577.09;5146255;27;20047;-71
2023/05/06 08:09:12;;;;;;;12.98;8.43;;;;;;;17.76;75.85;101570.72;5129586;27;20028;-71
2023/05/06 08:11:49;;;;;;;12.30;7.70;;;;;;;17.80;75.55;101569.66;5130290;27;20035;-71
2023/05/06 08:14:16;;;;;;;10.13;7.43;;;;;;;17.83;75.58;101577.47;5145683;27;20043;-71
2023/05/06 08:16:43;;;;;;;11.27;7.82;;;;;;;17.93;76.45;101574.34;5111967;27;20043;-71
2023/05/06 08:19:10;;;;;;;13.18;7.68;;;;;;;18.06;75.90;101564.84;5130173;27;20043;-70
2023/05/06 08:21:37;;;;;;;12.60;7.60;;;;;;;18.19;75.07;101569.56;5146229;27;20049;-71
2023/05/06 08:24:05;;;;;;;8.80;6.50;;;;;;;18.31;75.59;101580.47;5129879;27;20040;-71
2023/05/06 08:26:32;;;;;;;9.73;6.40;;;;;;;18.45;74.26;101578.91;5163824;27;20162;-71
2023/05/06 08:28:59;;;;;;;12.60;6.32;;;;;;;18.53;73.36;101575.81;5130128;27;20183;-71
2023/05/06 08:31:26;;;;;;;8.35;5.32;;;;;;;18.65;72.17;101575.16;5129770;27;20067;-71
2023/05/06 08:33:53;;;;;;;8.10;6.18;;;;;;;18.74;71.80;101574.69;5130030;27;20134;-71
2023/05/06 08:36:21;;;;;;;6.88;5.28;;;;;;;18.85;72.74;101579.47;5145864;27;20046;-72
2023/05/06 08:38:49;;;;;;;8.90;5.63;;;;;;;18.87;70.95;101576.69;5127805;27;20474;-72
2023/05/06 08:41:20;;;;;;;6.90;5.60;;;;;;;18.83;70.68;101570.66;5130052;27;20144;-72
2023/05/06 08:43:49;;;;;;;7.88;5.40;;;;;;;18.81;70.93;101575.22;5129787;27;20032;-72
2023/05/06 08:46:16;;;;;;;12.82;5.85;;;;;;;18.83;71.59;101573.34;5129226;27;20070;-72
2023/05/06 08:48:44;;;;;;;9.55;6.13;;;;;;;18.92;71.73;101572.00;5129620;27;20077;-71
2023/05/06 08:51:16;;;;;;;7.97;5.88;;;;;;;19.02;71.13;101567.03;5127843;27;20044;-71
2023/05/06 08:53:47;;;;;;;10.27;6.00;;;;;;;19.16;71.62;101566.25;5128459;27;20058;-72
2023/05/06 08:56:15;;;;;;;10.38;5.72;;;;;;;19.24;70.38;101567.56;5130024;27;20111;-72
2023/05/06 08:58:47;;;;;;;8.30;5.60;;;;;;;19.31;70.18;101575.25;5128972;27;20055;-72
2023/05/06 09:01:14;;;;;;;7.40;5.22;;;;;;;19.38;69.42;101565.94;5128952;27;20043;-72
2023/05/06 09:03:42;;;;;;;8.05;4.85;;;;;;;19.45;70.13;101561.97;5144949;27;20062;-71
2023/05/06 09:06:10;;;;;;;6.75;4.90;;;;;;;19.52;68.33;101565.16;5129050;27;20032;-72
2023/05/06 09:08:37;;;;;;;8.98;4.20;;;;;;;19.59;67.88;101554.97;5128067;27;20046;-72
2023/05/06 09:11:26;;;;;;;6.40;4.10;;;;;;;19.63;66.46;101554.72;5144697;27;20036;-72
2023/05/06 09:14:14;;;;;;;7.72;4.30;;;;;;;19.65;67.07;101550.13;5129396;27;20555;-72
2023/05/06 09:16:45;;;;;;;7.57;4.65;;;;;;;19.73;66.20;101557.72;5129087;27;20044;-72
2023/05/06 09:19:14;;;;;;;8.50;4.30;;;;;;;19.79;66.55;101548.47;5129075;27;20184;-72
2023/05/06 09:21:47;;;;;;;8.27;3.97;;;;;;;19.85;66.44;101549.00;5129218;27;20092;-73
2023/05/06 09:24:15;;;;;;;7.80;4.78;;;;;;;19.90;65.90;101547.88;5129413;27;20081;-72
2023/05/06 09:26:44;;;;;;;9.25;4.82;;;;;;;19.88;65.03;101541.78;5129038;27;20040;-72
2023/05/06 09:29:12;;;;;;;7.07;5.00;;;;;;;19.90;65.92;101546.06;5162841;27;20036;-72
2023/05/06 09:31:43;;;;;;;9.27;5.47;;;;;;;19.95;65.93;101538.63;5128399;27;20051;-72
2023/05/06 09:34:12;;;;;;;9.05;4.93;;;;;;;20.05;66.22;101538.94;5162444;27;20075;-72
2023/05/06 09:36:39;;;;;;;8.20;5.30;;;;;;;20.21;66.20;101536.22;5129520;27;20578;-72
2023/05/06 09:39:07;;;;;;;9.73;5.75;;;;;;;20.36;64.90;101531.75;5126936;27;20474;-72
2023/05/06 09:41:34;;;;;;;8.85;5.88;;;;;;;20.44;65.13;101542.00;5127896;27;20032;-72
2023/05/06 09:44:02;;;;;;;9.05;4.70;;;;;;;20.52;63.84;101538.84;5143569;27;20056;-71
2023/05/06 09:46:29;;;;;;;8.52;4.20;;;;;;;20.60;61.81;101539.25;5128113;27;20047;-71
2023/05/06 09:48:57;;;;;;;5.80;3.50;;;;;;;20.69;62.33;101543.16;5127453;27;20813;-72
2023/05/06 09:51:26;;;;;;;5.22;3.67;;;;;;;20.83;62.19;101536.97;5145007;27;20506;-72
2023/05/06 09:53:56;;;;;;;4.82;3.00;;;;;;;20.89;60.60;101529.41;5128622;27;20047;-72
2023/05/06 09:56:25;;;;;;;6.20;3.88;;;;;;;20.92;60.40;101531.03;5127179;27;20036;-72
2023/05/06 09:58:54;;;;;;;7.20;3.50;;;;;;;20.95;60.33;101533.50;5128525;27;20130;-72
2023/05/06 10:01:22;;;;;;;5.22;3.17;;;;;;;20.96;59.05;101534.41;5127465;27;20097;-72
2023/05/06 10:04:08;;;;;;;5.18;2.90;;;;;;;21.01;58.59;101535.78;5142683;27;20043;-72
2023/05/06 10:06:38;;;;;;;;;;;;;;;21.06;58.95;101535.53;5127222;27;20101;-72
2023/05/06 10:09:08;;;;;;;5.15;2.65;;;;;;;21.17;58.10;101543.72;5128503;27;19924;-72
2023/05/06 10:11:35;;;;;;;4.50;2.40;;;;;;;21.23;57.75;101529.06;5156475;27;20071;-72
2023/05/06 10:14:03;;;;;;;4.82;2.25;;;;;;;21.31;57.70;101531.25;5116697;27;20104;-72
2023/05/06 10:16:34;;;;;;;6.32;2.90;;;;;;;21.37;57.12;101528.16;5142900;27;20043;-70
2023/05/06 10:19:06;;;;;;;5.30;2.13;;;;;;;21.48;56.97;101532.84;5127953;27;20035;-71
2023/05/06 10:21:39;;;;;;;6.55;2.97;;;;;;;21.55;57.22;101524.28;5128464;27;20044;-73
2023/05/06 10:24:10;;;;;;;5.10;2.70;;;;;;;21.68;56.58;101523.47;5127978;27;20067;-72
2023/05/06 10:26:41;;;;;;;5.68;2.90;;;;;;;21.77;55.44;101519.34;5128390;27;20036;-72
2023/05/06 10:29:09;;;;;;;6.95;2.90;;;;;;;21.90;56.71;101509.50;5143985;27;20039;-72
2023/05/06 10:31:55;;;;;;;10.85;3.17;;;;;;;22.06;56.19;101508.44;5126727;27;20542;-72
2023/05/06 10:34:24;;;;;;;5.53;3.80;;;;;;;22.16;54.33;101512.22;5127879;27;20044;-72
2023/05/06 10:36:56;;;;;;;5.50;3.03;;;;;;;22.21;56.17;101518.13;5128129;27;20038;-71
2023/05/06 10:39:25;;;;;;;5.18;2.80;;;;;;;22.30;54.64;101509.44;5126871;27;20070;-71
2023/05/06 10:41:52;;;;;;;6.47;3.00;;;;;;;22.34;52.88;101507.41;5128082;27;20067;-71
2023/05/06 10:44:59;;;;;;;7.03;2.90;;;;;;;22.34;53.37;101502.88;5126494;27;20040;-71
2023/05/06 10:47:26;;;;;;;7.03;3.53;;;;;;;22.44;53.94;101499.56;5125626;27;20582;-70
2023/05/06 10:50:26;;;;;;;4.78;3.05;;;;;;;22.56;52.60;101495.19;5128540;27;20036;-70
2023/05/06 10:52:57;;;;;;;6.18;2.40;;;;;;;22.53;52.22;101488.22;5123910;27;20048;-71
2023/05/06 10:55:34;;;;;;;7.70;3.30;;;;;;;22.59;52.46;101487.75;5126014;27;20533;-71
2023/05/06 10:58:10;;;;;;;6.88;3.90;;;;;;;22.73;52.45;101491.28;5143268;27;20044;-71
2023/05/06 11:00:37;;;;;;;6.53;3.40;;;;;;;22.83;51.03;101486.09;5127242;27;20036;-70
2023/05/06 11:03:12;;;;;;;6.40;2.90;;;;;;;22.82;52.42;101487.06;5125467;27;20248;-71
2023/05/06 11:05:57;;;;;;;4.95;2.80;;;;;;;23.03;52.65;101487.34;5126073;27;20116;-71
2023/05/06 11:08:25;;;;;;;4.22;2.90;;;;;;;23.17;50.56;101484.50;5143671;27;20625;-70
2023/05/06 11:10:54;;;;;;;6.38;2.50;;;;;;;23.09;49.73;101489.59;5127765;27;20042;-70
2023/05/06 11:13:27;;;;;;;4.45;2.65;;;;;;;23.22;49.05;101486.88;5147781;27;20519;-70
2023/05/06 11:15:56;;;;;;;5.88;2.80;;;;;;;23.31;46.89;101478.13;5122335;27;20040;-70
2023/05/06 11:18:23;;;;;;;4.43;2.50;;;;;;;23.40;48.01;101473.88;5105660;27;20426;-71
2023/05/06 11:21:19;;;;;;;4.93;2.55;;;;;;;23.71;49.65;101480.50;5105027;28;20516;-70
2023/05/06 11:23:48;;;;;;;4.75;2.22;;;;;;;24.01;47.99;101478.28;5108002;27;20056;-70